createdAt,value
2023-05-02T00:01:20.518Z,22.63
2023-05-02T00:03:47.359Z,22.10
2023-05-02T00:06:14.320Z,22.70
2023-05-02T00:08:41.516Z,24.37
2023-05-02T00:11:08.277Z,22.77
2023-05-02T00:13:34.980Z,24.77
2023-05-02T00:16:02.103Z,23.50
2023-05-02T00:18:28.853Z,24.67
2023-05-02T00:20:56.906Z,26.17
2023-05-02T00:23:24.036Z,27.17
2023-05-02T00:25:50.942Z,26.97
2023-05-02T00:28:18.557Z,27.70
2023-05-02T00:30:46.182Z,28.77
2023-05-02T00:33:14.795Z,28.73
2023-05-02T00:35:42.023Z,29.33
2023-05-02T00:38:09.035Z,27.90
2023-05-02T00:40:46.228Z,31.87
2023-05-02T00:43:13.432Z,30.27
2023-05-02T00:45:41.884Z,30.90
2023-05-02T00:48:09.283Z,31.00
2023-05-02T00:50:43.284Z,31.13
2023-05-02T00:53:10.983Z,32.10
2023-05-02T00:55:38.210Z,32.90
2023-05-02T00:58:14.356Z,33.00
2023-05-02T01:01:14.224Z,30.87
2023-05-02T01:03:59.819Z,31.47
2023-05-02T01:06:52.798Z,31.53
2023-05-02T01:09:40.471Z,29.80
2023-05-02T01:12:39.035Z,30.40
2023-05-02T01:15:08.959Z,31.33
2023-05-02T01:17:36.760Z,30.13
2023-05-02T01:20:07.145Z,29.13
2023-05-02T01:22:35.262Z,30.23
2023-05-02T01:25:17.081Z,30.57
2023-05-02T01:28:04.648Z,30.67
2023-05-02T01:30:34.034Z,30.83
2023-05-02T01:33:03.134Z,29.73
2023-05-02T01:35:32.768Z,30.37
2023-05-02T01:38:02.720Z,32.20
2023-05-02T01:40:30.754Z,31.53
2023-05-02T01:42:59.203Z,32.93
2023-05-02T01:45:27.652Z,34.63
2023-05-02T01:47:54.775Z,33.80
2023-05-02T01:50:24.999Z,32.87
2023-05-02T01:52:54.620Z,32.10
2023-05-02T01:55:22.098Z,32.60
2023-05-02T01:57:50.752Z,34.47
2023-05-02T02:00:19.573Z,32.97
2023-05-02T02:02:48.305Z,32.27
2023-05-02T02:05:16.165Z,33.53
2023-05-02T02:07:43.936Z,34.27
2023-05-02T02:10:11.285Z,34.23
2023-05-02T02:12:45.314Z,33.83
2023-05-02T02:15:12.421Z,33.67
2023-05-02T02:17:56.281Z,33.47
2023-05-02T02:20:23.493Z,34.47
2023-05-02T02:22:52.067Z,32.30
2023-05-02T02:25:19.886Z,33.77
2023-05-02T02:27:47.905Z,34.37
2023-05-02T02:30:16.504Z,33.30
2023-05-02T02:32:43.265Z,33.40
2023-05-02T02:35:10.714Z,33.80
2023-05-02T02:37:55.015Z,34.77
2023-05-02T02:40:38.465Z,35.13
2023-05-02T02:43:25.963Z,35.50
2023-05-02T02:46:07.706Z,35.00
2023-05-02T02:48:40.829Z,33.87
2023-05-02T02:51:29.990Z,31.00
2023-05-02T02:54:26.596Z,32.83
2023-05-02T02:57:02.747Z,33.37
2023-05-02T02:59:33.834Z,33.57
2023-05-02T03:02:04.387Z,33.20
2023-05-02T03:04:33.986Z,30.63
2023-05-02T03:07:01.670Z,31.87
2023-05-02T03:09:30.448Z,30.20
2023-05-02T03:11:57.572Z,28.83
2023-05-02T03:14:24.666Z,30.47
2023-05-02T03:16:51.857Z,30.37
2023-05-02T03:19:18.537Z,29.73
2023-05-02T03:21:46.062Z,29.50
2023-05-02T03:24:12.764Z,29.37
2023-05-02T03:26:39.550Z,31.30
2023-05-02T03:29:06.726Z,30.57
2023-05-02T03:31:33.498Z,30.80
2023-05-02T03:34:01.060Z,30.03
2023-05-02T03:36:28.005Z,28.43
2023-05-02T03:38:55.101Z,29.30
2023-05-02T03:41:22.848Z,27.87
2023-05-02T03:43:49.594Z,28.63
2023-05-02T03:46:16.418Z,27.20
2023-05-02T03:48:43.623Z,29.40
2023-05-02T03:51:10.748Z,27.17
2023-05-02T03:53:37.824Z,29.23
2023-05-02T03:56:04.783Z,27.83
2023-05-02T03:58:31.841Z,27.53
2023-05-02T04:00:58.666Z,26.90
2023-05-02T04:03:27.222Z,27.03
2023-05-02T04:06:00.147Z,28.27
2023-05-02T04:08:26.978Z,29.97
2023-05-02T04:10:54.073Z,27.67
2023-05-02T04:13:20.777Z,28.87
2023-05-02T04:15:47.486Z,27.70
2023-05-02T04:18:14.764Z,27.63
2023-05-02T04:20:44.585Z,26.50
2023-05-02T04:23:11.335Z,27.37
2023-05-02T04:25:37.975Z,28.40
2023-05-02T04:28:05.224Z,28.67
2023-05-02T04:30:32.175Z,27.30
2023-05-02T04:32:59.447Z,26.63
2023-05-02T04:35:26.650Z,26.93
2023-05-02T04:37:53.373Z,27.67
2023-05-02T04:40:20.541Z,24.77
2023-05-02T04:42:47.609Z,24.77
2023-05-02T04:45:14.250Z,25.80
2023-05-02T04:47:41.555Z,25.77
2023-05-02T04:50:09.147Z,25.97
2023-05-02T04:52:36.407Z,25.57
2023-05-02T04:55:03.216Z,25.57
2023-05-02T04:57:30.369Z,26.80
2023-05-02T04:59:57.544Z,25.53
2023-05-02T05:02:25.812Z,25.93
2023-05-02T05:04:52.799Z,26.33
2023-05-02T05:07:19.481Z,24.87
2023-05-02T05:09:46.570Z,23.80
2023-05-02T05:12:13.388Z,23.87
2023-05-02T05:14:40.227Z,24.30
2023-05-02T05:17:07.586Z,24.60
2023-05-02T05:19:34.658Z,24.33
2023-05-02T05:22:01.364Z,24.23
2023-05-02T05:24:28.040Z,23.43
2023-05-02T05:26:55.227Z,22.90
2023-05-02T05:29:22.430Z,24.57
2023-05-02T05:31:49.681Z,23.50
2023-05-02T05:34:16.698Z,22.60
2023-05-02T05:36:43.901Z,22.47
2023-05-02T05:39:10.797Z,23.57
2023-05-02T05:41:38.225Z,21.87
2023-05-02T05:44:05.411Z,22.10
2023-05-02T05:46:32.587Z,21.33
2023-05-02T05:48:59.402Z,21.43
2023-05-02T05:51:27.842Z,22.63
2023-05-02T05:53:54.996Z,22.30
2023-05-02T05:56:22.847Z,21.90
2023-05-02T05:58:50.049Z,22.47
2023-05-02T06:01:17.208Z,20.87
2023-05-02T06:03:44.448Z,21.27
2023-05-02T06:06:11.272Z,20.93
2023-05-02T06:08:38.028Z,21.93
2023-05-02T06:11:09.506Z,22.07
2023-05-02T06:13:36.274Z,21.80
2023-05-02T06:16:03.578Z,20.60
2023-05-02T06:18:30.342Z,20.17
2023-05-02T06:20:57.592Z,21.40
2023-05-02T06:23:24.714Z,20.03
2023-05-02T06:25:51.788Z,21.03
2023-05-02T06:28:18.490Z,19.77
2023-05-02T06:30:45.587Z,20.37
2023-05-02T06:33:12.437Z,19.17
2023-05-02T06:35:39.362Z,18.47
2023-05-02T06:38:06.414Z,20.20
2023-05-02T06:40:36.401Z,18.87
2023-05-02T06:43:03.542Z,20.17
2023-05-02T06:45:30.693Z,21.90
2023-05-02T06:47:57.850Z,22.40
2023-05-02T06:50:25.029Z,20.73
2023-05-02T06:52:55.536Z,20.97
2023-05-02T06:55:22.407Z,23.10
2023-05-02T06:57:49.992Z,22.73
2023-05-02T07:00:17.957Z,22.33
2023-05-02T07:02:45.542Z,22.57
2023-05-02T07:05:12.651Z,22.30
2023-05-02T07:07:39.771Z,20.93
2023-05-02T07:10:07.111Z,19.70
2023-05-02T07:12:33.808Z,20.20
2023-05-02T07:15:00.888Z,21.10
2023-05-02T07:17:28.081Z,19.83
2023-05-02T07:19:55.235Z,21.13
2023-05-02T07:22:22.308Z,19.97
2023-05-02T07:24:49.397Z,20.23
2023-05-02T07:27:16.445Z,20.50
2023-05-02T07:29:43.093Z,20.37
2023-05-02T07:32:10.389Z,20.23
2023-05-02T07:34:37.113Z,21.83
2023-05-02T07:37:04.205Z,19.77
2023-05-02T07:39:33.744Z,18.10
2023-05-02T07:42:01.323Z,16.70
2023-05-02T07:44:28.418Z,17.03
2023-05-02T07:46:55.452Z,14.77
2023-05-02T07:49:22.219Z,13.87
2023-05-02T07:51:49.376Z,12.57
2023-05-02T07:54:17.745Z,12.20
2023-05-02T07:56:44.923Z,11.10
2023-05-02T07:59:12.051Z,10.50
2023-05-02T08:01:42.647Z,11.13
2023-05-02T08:04:13.194Z,12.23
2023-05-02T08:06:40.908Z,12.20
2023-05-02T08:09:09.160Z,12.03
2023-05-02T08:11:36.221Z,11.23
2023-05-02T08:14:03.368Z,10.80
2023-05-02T08:16:30.601Z,11.23
2023-05-02T08:18:57.351Z,9.73
2023-05-02T08:21:24.439Z,9.60
2023-05-02T08:23:51.504Z,10.83
2023-05-02T08:26:19.037Z,9.57
2023-05-02T08:28:46.112Z,9.03
2023-05-02T08:31:12.854Z,8.47
2023-05-02T08:33:39.954Z,9.37
2023-05-02T08:36:13.876Z,8.67
2023-05-02T08:38:41.075Z,7.77
2023-05-02T08:41:18.462Z,8.17
2023-05-02T08:43:48.285Z,9.43
2023-05-02T08:46:17.237Z,9.67
2023-05-02T08:48:48.002Z,9.73
2023-05-02T08:51:16.801Z,8.77
2023-05-02T08:53:44.286Z,8.27
2023-05-02T08:56:12.903Z,9.30
2023-05-02T08:58:41.586Z,10.17
2023-05-02T09:01:16.747Z,11.13
2023-05-02T09:03:45.538Z,10.73
2023-05-02T09:06:20.527Z,10.27
2023-05-02T09:08:50.303Z,9.23
2023-05-02T09:11:17.575Z,9.23
2023-05-02T09:13:46.189Z,9.30
2023-05-02T09:16:24.107Z,6.23
2023-05-02T09:18:52.912Z,4.60
2023-05-02T09:21:21.600Z,4.43
2023-05-02T09:23:50.525Z,3.83
2023-05-02T09:26:35.450Z,4.37
2023-05-02T09:29:04.536Z,7.00
2023-05-02T09:31:54.988Z,6.63
2023-05-02T09:34:22.849Z,7.60
2023-05-02T09:36:51.964Z,8.30
2023-05-02T09:39:23.792Z,7.87
2023-05-02T09:41:52.920Z,9.00
2023-05-02T09:44:25.847Z,8.13
2023-05-02T09:46:54.532Z,8.00
2023-05-02T09:49:46.879Z,8.80
2023-05-02T09:52:16.173Z,8.10
2023-05-02T09:54:43.480Z,8.47
2023-05-02T09:57:11.424Z,8.67
2023-05-02T09:59:39.817Z,8.63
2023-05-02T10:02:09.493Z,9.80
2023-05-02T10:04:36.800Z,8.50
2023-05-02T10:07:03.743Z,8.30
2023-05-02T10:09:32.805Z,8.47
2023-05-02T10:12:06.650Z,7.53
2023-05-02T10:14:39.382Z,6.57
2023-05-02T10:17:21.501Z,7.13
2023-05-02T10:19:56.390Z,6.27
2023-05-02T10:22:23.692Z,6.87
2023-05-02T10:24:50.598Z,7.33
2023-05-02T10:27:17.731Z,7.00
2023-05-02T10:29:45.102Z,7.40
2023-05-02T10:32:12.292Z,7.40
2023-05-02T10:34:40.266Z,6.93
2023-05-02T10:37:07.360Z,6.67
2023-05-02T10:39:34.299Z,5.70
2023-05-02T10:42:03.397Z,6.00
2023-05-02T10:44:37.080Z,6.17
2023-05-02T10:47:22.438Z,5.37
2023-05-02T10:49:54.149Z,5.67
2023-05-02T10:52:38.557Z,6.30
2023-05-02T10:55:21.980Z,6.43
2023-05-02T10:58:00.515Z,5.57
2023-05-02T11:00:35.101Z,5.80
2023-05-02T11:03:02.530Z,6.03
2023-05-02T11:05:30.403Z,5.60
2023-05-02T11:08:15.420Z,6.30
2023-05-02T11:10:42.398Z,4.80
2023-05-02T11:13:09.516Z,4.07
2023-05-02T11:15:42.406Z,3.70
2023-05-02T11:18:09.647Z,4.07
2023-05-02T11:20:39.545Z,3.50
2023-05-02T11:23:21.546Z,3.50
2023-05-02T11:25:50.167Z,4.23
2023-05-02T11:28:38.647Z,3.80
2023-05-02T11:31:10.915Z,3.53
2023-05-02T11:33:38.080Z,3.63
2023-05-02T11:36:05.290Z,3.20
2023-05-02T11:38:39.034Z,4.30
2023-05-02T11:41:06.246Z,4.80
2023-05-02T11:43:33.496Z,4.90
2023-05-02T11:46:01.759Z,4.60
2023-05-02T11:48:29.566Z,3.73
2023-05-02T11:51:04.809Z,4.50
2023-05-02T11:53:32.811Z,4.37
2023-05-02T11:56:01.060Z,4.60
2023-05-02T11:58:30.123Z,4.93
2023-05-02T12:00:57.429Z,5.03
2023-05-02T12:03:31.317Z,5.20
2023-05-02T12:05:59.349Z,4.33
2023-05-02T12:08:27.558Z,4.83
2023-05-02T12:10:55.925Z,4.83
2023-05-02T12:13:24.311Z,4.83
2023-05-02T12:15:52.175Z,4.53
2023-05-02T12:18:22.036Z,5.83
2023-05-02T12:20:49.615Z,6.03
2023-05-02T12:23:16.641Z,4.37
2023-05-02T12:25:43.403Z,4.63
2023-05-02T12:28:10.877Z,4.00
2023-05-02T12:30:38.798Z,3.90
2023-05-02T12:33:06.487Z,3.90
2023-05-02T12:35:34.933Z,3.60
2023-05-02T12:38:20.311Z,3.73
2023-05-02T12:40:48.668Z,4.17
2023-05-02T12:43:15.602Z,4.50
2023-05-02T12:45:43.712Z,4.50
2023-05-02T12:48:22.014Z,4.37
2023-05-02T12:50:49.294Z,4.40
2023-05-02T12:53:16.148Z,4.10
2023-05-02T12:55:43.005Z,4.23
2023-05-02T12:58:13.520Z,4.60
2023-05-02T13:00:43.631Z,5.13
2023-05-02T13:03:11.984Z,4.63
2023-05-02T13:05:38.833Z,4.37
2023-05-02T13:08:06.159Z,4.57
2023-05-02T13:10:33.157Z,5.10
2023-05-02T13:12:59.869Z,5.00
2023-05-02T13:15:27.083Z,5.70
2023-05-02T13:17:53.972Z,4.37
2023-05-02T13:20:21.235Z,4.70
2023-05-02T13:22:48.394Z,4.53
2023-05-02T13:25:15.118Z,5.33
2023-05-02T13:27:41.797Z,4.87
2023-05-02T13:30:09.945Z,6.20
2023-05-02T13:32:37.426Z,5.53
2023-05-02T13:35:04.717Z,5.50
2023-05-02T13:37:31.854Z,4.87
2023-05-02T13:39:59.289Z,5.27
2023-05-02T13:42:26.799Z,5.10
2023-05-02T13:44:53.983Z,5.10
2023-05-02T13:47:21.518Z,5.00
2023-05-02T13:49:48.637Z,5.50
2023-05-02T13:52:15.487Z,6.10
2023-05-02T13:54:42.380Z,5.47
2023-05-02T13:57:09.450Z,4.83
2023-05-02T13:59:36.571Z,5.83
2023-05-02T14:02:03.674Z,4.80
2023-05-02T14:04:30.923Z,4.80
2023-05-02T14:06:58.002Z,4.97
2023-05-02T14:09:25.477Z,4.97
2023-05-02T14:11:52.207Z,4.57
2023-05-02T14:14:19.601Z,4.20
2023-05-02T14:16:47.651Z,4.60
2023-05-02T14:19:16.346Z,3.93
2023-05-02T14:21:43.455Z,3.67
2023-05-02T14:24:12.284Z,4.00
2023-05-02T14:26:38.964Z,4.43
2023-05-02T14:29:06.185Z,4.53
2023-05-02T14:31:33.405Z,4.30
2023-05-02T14:34:00.099Z,4.93
2023-05-02T14:36:27.174Z,4.90
2023-05-02T14:38:54.323Z,5.20
2023-05-02T14:41:21.530Z,5.00
2023-05-02T14:43:48.691Z,5.13
2023-05-02T14:46:15.684Z,4.67
2023-05-02T14:48:42.825Z,4.70
2023-05-02T14:51:09.485Z,5.13
2023-05-02T14:53:36.403Z,4.87
2023-05-02T14:56:03.518Z,4.93
2023-05-02T14:58:30.263Z,4.97
2023-05-02T15:00:57.384Z,5.20
2023-05-02T15:03:24.695Z,5.47
2023-05-02T15:05:51.925Z,4.50
2023-05-02T15:08:19.531Z,4.50
2023-05-02T15:10:46.228Z,4.60
2023-05-02T15:13:13.380Z,5.27
2023-05-02T15:15:40.488Z,4.87
2023-05-02T15:18:07.789Z,4.20
2023-05-02T15:20:39.584Z,4.00
2023-05-02T15:23:06.663Z,4.20
2023-05-02T15:25:33.737Z,4.30
2023-05-02T15:28:02.294Z,4.50
2023-05-02T15:30:29.420Z,4.57
2023-05-02T15:32:56.600Z,4.40
2023-05-02T15:35:23.712Z,4.77
2023-05-02T15:37:50.776Z,4.60
2023-05-02T15:40:17.610Z,4.47
2023-05-02T15:42:44.311Z,3.80
2023-05-02T15:45:14.138Z,4.93
2023-05-02T15:47:41.288Z,4.43
2023-05-02T15:50:10.599Z,4.10
2023-05-02T15:52:37.350Z,4.10
2023-05-02T15:55:05.107Z,3.57
2023-05-02T15:57:31.788Z,4.00
2023-05-02T15:59:58.487Z,4.73
2023-05-02T16:02:26.002Z,5.27
2023-05-02T16:04:52.673Z,4.73
2023-05-02T16:07:19.775Z,4.83
2023-05-02T16:09:46.873Z,4.57
2023-05-02T16:12:14.628Z,3.60
2023-05-02T16:14:41.739Z,3.97
2023-05-02T16:17:08.509Z,4.07
2023-05-02T16:19:35.598Z,3.70
2023-05-02T16:22:03.313Z,3.70
2023-05-02T16:24:30.538Z,3.53
2023-05-02T16:26:57.247Z,3.47
2023-05-02T16:29:23.986Z,5.27
2023-05-02T16:31:51.180Z,5.60
2023-05-02T16:34:17.893Z,4.10
2023-05-02T16:36:46.719Z,3.93
2023-05-02T16:39:13.839Z,4.30
2023-05-02T16:41:40.796Z,3.77
2023-05-02T16:44:07.582Z,4.20
2023-05-02T16:46:34.351Z,4.53
2023-05-02T16:49:01.518Z,4.30
2023-05-02T16:51:28.397Z,4.60
2023-05-02T16:53:55.626Z,4.70
2023-05-02T16:56:22.775Z,4.70
2023-05-02T16:58:49.936Z,4.23
2023-05-02T17:01:17.276Z,5.03
2023-05-02T17:03:44.457Z,4.13
2023-05-02T17:06:11.304Z,3.93
2023-05-02T17:08:39.147Z,4.37
2023-05-02T17:11:07.668Z,4.60
2023-05-02T17:13:34.796Z,4.60
2023-05-02T17:16:02.402Z,4.20
2023-05-02T17:18:29.582Z,4.00
2023-05-02T17:20:56.908Z,4.20
2023-05-02T17:23:23.910Z,4.80
2023-05-02T17:25:51.553Z,4.43
2023-05-02T17:28:18.213Z,5.10
2023-05-02T17:30:46.054Z,6.30
2023-05-02T17:33:12.848Z,4.97
2023-05-02T17:35:40.078Z,5.83
2023-05-02T17:38:07.176Z,4.70
2023-05-02T17:40:35.993Z,6.33
2023-05-02T17:43:05.232Z,6.00
2023-05-02T17:45:32.295Z,5.27
2023-05-02T17:47:59.015Z,5.07
2023-05-02T17:50:26.633Z,6.40
2023-05-02T17:52:53.436Z,6.33
2023-05-02T17:55:20.868Z,5.20
2023-05-02T17:57:48.508Z,5.60
2023-05-02T18:00:15.466Z,4.70
2023-05-02T18:02:42.268Z,3.80
2023-05-02T18:05:09.543Z,4.20
2023-05-02T18:07:36.303Z,4.13
2023-05-02T18:10:05.234Z,3.90
2023-05-02T18:12:33.655Z,3.83
2023-05-02T18:15:03.012Z,3.70
2023-05-02T18:17:30.321Z,4.00
2023-05-02T18:19:57.458Z,4.10
2023-05-02T18:22:24.700Z,4.07
2023-05-02T18:24:53.321Z,4.10
2023-05-02T18:27:20.580Z,3.97
2023-05-02T18:29:47.860Z,4.53
2023-05-02T18:32:14.984Z,4.27
2023-05-02T18:34:42.057Z,3.87
2023-05-02T18:37:08.885Z,5.27
2023-05-02T18:39:36.149Z,7.03
2023-05-02T18:42:03.556Z,9.37
2023-05-02T18:44:31.165Z,10.23
2023-05-02T18:46:58.599Z,9.17
2023-05-02T18:49:26.179Z,8.80
2023-05-02T18:51:56.080Z,7.90
2023-05-02T18:54:24.161Z,7.40
2023-05-02T18:56:51.606Z,7.60
2023-05-02T18:59:18.916Z,6.50
2023-05-02T19:01:48.254Z,6.10
2023-05-02T19:04:15.510Z,5.67
2023-05-02T19:06:42.411Z,4.97
2023-05-02T19:09:09.610Z,5.03
2023-05-02T19:11:36.804Z,5.30
2023-05-02T19:14:03.931Z,5.47
2023-05-02T19:16:32.204Z,5.30
2023-05-02T19:18:59.388Z,4.80
2023-05-02T19:21:27.321Z,4.93
2023-05-02T19:23:56.492Z,5.00
2023-05-02T19:26:23.639Z,4.90
2023-05-02T19:28:50.733Z,5.13
2023-05-02T19:31:19.574Z,4.63
2023-05-02T19:33:51.554Z,4.37
2023-05-02T19:36:19.820Z,4.40
2023-05-02T19:38:58.092Z,4.07
2023-05-02T19:41:25.141Z,4.53
2023-05-02T19:43:52.594Z,4.40
2023-05-02T19:46:19.932Z,4.60
2023-05-02T19:48:47.549Z,4.40
2023-05-02T19:51:14.666Z,4.43
2023-05-02T19:53:41.778Z,5.00
2023-05-02T19:56:08.453Z,4.90
2023-05-02T19:58:35.929Z,4.43
2023-05-02T20:01:03.554Z,4.53
2023-05-02T20:03:31.004Z,4.63
2023-05-02T20:05:58.517Z,4.73
2023-05-02T20:08:27.815Z,5.30
2023-05-02T20:10:55.573Z,4.83
2023-05-02T20:13:22.346Z,4.50
2023-05-02T20:15:50.665Z,5.80
2023-05-02T20:18:17.436Z,5.03
2023-05-02T20:20:44.680Z,4.90
2023-05-02T20:23:11.733Z,5.37
2023-05-02T20:25:40.336Z,4.83
2023-05-02T20:28:07.874Z,4.90
2023-05-02T20:30:35.572Z,4.73
2023-05-02T20:33:14.106Z,4.83
2023-05-02T20:35:43.132Z,4.83
2023-05-02T20:38:10.023Z,4.80
2023-05-02T20:40:39.823Z,5.50
2023-05-02T20:43:07.356Z,5.13
2023-05-02T20:45:34.606Z,5.07
2023-05-02T20:48:01.815Z,5.57
2023-05-02T20:50:28.752Z,6.10
2023-05-02T20:52:56.473Z,5.03
2023-05-02T20:55:24.018Z,5.20
2023-05-02T20:57:52.924Z,5.33
2023-05-02T21:00:22.372Z,5.63
2023-05-02T21:02:49.803Z,5.40
2023-05-02T21:05:16.765Z,6.30
2023-05-02T21:07:44.655Z,5.67
2023-05-02T21:10:11.877Z,6.13
2023-05-02T21:12:39.463Z,4.70
2023-05-02T21:15:07.466Z,5.50
2023-05-02T21:17:34.772Z,5.10
2023-05-02T21:20:02.200Z,5.43
2023-05-02T21:22:29.594Z,5.60
2023-05-02T21:24:56.654Z,6.17
2023-05-02T21:27:23.620Z,5.20
2023-05-02T21:29:50.928Z,5.37
2023-05-02T21:32:18.022Z,5.30
2023-05-02T21:34:44.654Z,5.27
2023-05-02T21:37:11.767Z,5.70
2023-05-02T21:39:39.512Z,5.30
2023-05-02T21:42:06.237Z,5.83
2023-05-02T21:44:33.340Z,5.67
2023-05-02T21:47:00.080Z,5.43
2023-05-02T21:49:29.884Z,5.30
2023-05-02T21:51:58.328Z,6.03
2023-05-02T21:54:25.029Z,5.37
2023-05-02T21:56:53.190Z,5.47
2023-05-02T21:59:20.320Z,5.77
2023-05-02T22:01:47.047Z,5.60
2023-05-02T22:04:13.822Z,5.53
2023-05-02T22:06:41.404Z,5.30
2023-05-02T22:09:08.334Z,5.47
2023-05-02T22:11:38.047Z,5.83
2023-05-02T22:14:05.331Z,6.63
2023-05-02T22:16:32.536Z,6.47
2023-05-02T22:19:01.191Z,5.33
2023-05-02T22:21:28.863Z,6.23
2023-05-02T22:23:56.338Z,6.13
2023-05-02T22:26:23.551Z,5.37
2023-05-02T22:28:50.931Z,5.63
2023-05-02T22:31:19.235Z,5.80
2023-05-02T22:33:49.779Z,5.80
2023-05-02T22:36:17.595Z,6.13
2023-05-02T22:38:44.686Z,5.33
2023-05-02T22:41:11.760Z,5.17
2023-05-02T22:43:38.507Z,5.57
2023-05-02T22:46:05.665Z,5.20
2023-05-02T22:48:32.867Z,5.60
2023-05-02T22:51:00.018Z,5.77
2023-05-02T22:53:26.816Z,5.30
2023-05-02T22:55:53.564Z,5.90
2023-05-02T22:58:20.615Z,5.50
2023-05-02T23:00:47.803Z,5.47
2023-05-02T23:03:14.677Z,5.27
2023-05-02T23:05:41.917Z,5.30
2023-05-02T23:08:09.018Z,5.63
2023-05-02T23:10:35.674Z,5.40
2023-05-02T23:13:02.750Z,5.20
2023-05-02T23:15:29.812Z,4.87
2023-05-02T23:17:56.517Z,6.00
2023-05-02T23:20:23.718Z,6.37
2023-05-02T23:22:51.176Z,5.97
2023-05-02T23:25:18.778Z,6.10
2023-05-02T23:27:45.619Z,5.30
2023-05-02T23:30:12.496Z,6.43
2023-05-02T23:32:39.681Z,6.27
2023-05-02T23:35:06.999Z,5.70
2023-05-02T23:37:34.136Z,5.60
2023-05-02T23:40:01.356Z,7.00
2023-05-02T23:42:29.970Z,5.90
2023-05-02T23:44:57.691Z,5.50
2023-05-02T23:47:28.690Z,6.50
2023-05-02T23:49:56.334Z,6.13
2023-05-02T23:52:23.415Z,5.80
2023-05-02T23:54:50.561Z,5.97
2023-05-02T23:57:17.638Z,5.80
2023-05-02T23:59:44.494Z,6.07
